Time;durP1;ratioP1;P1;durP2;ratioP2;P2;SDS_P1;SDS_P2;PMS_P1;PMS_P2;Temp;Humidity;BMP_temperature;BMP_pressure;BME280_temperature;BME280_humidity;BME280_pressure;Samples;Min_cycle;Max_cycle;Signal;HPM_P1;HPM_P2
2021/01/16 00:01:43;;;;;;;26.88;16.58;;;2.10;99.90;;;;;;5052435;28;20092;-83
2021/01/16 00:04:10;;;;;;;26.02;16.70;;;2.10;99.90;;;;;;5039631;28;20065;-82
2021/01/16 00:06:36;;;;;;;30.92;17.20;;;2.10;99.90;;;;;;5059732;28;20068;-82
2021/01/16 00:09:04;;;;;;;28.33;16.13;;;2.20;99.90;;;;;;5043342;28;20069;-82
2021/01/16 00:11:30;;;;;;;28.70;16.75;;;2.10;99.90;;;;;;5036518;28;20103;-82
2021/01/16 00:13:57;;;;;;;28.75;16.25;;;2.00;99.90;;;;;;5056338;28;20061;-81
2021/01/16 00:16:23;;;;;;;28.33;17.25;;;2.10;99.90;;;;;;5025017;28;20111;-82
2021/01/16 00:18:49;;;;;;;30.25;17.33;;;2.00;99.90;;;;;;5048078;28;20049;-82
2021/01/16 00:21:16;;;;;;;31.85;18.60;;;2.00;99.90;;;;;;5040580;28;20111;-83
2021/01/16 00:23:42;;;;;;;29.98;17.17;;;2.10;99.90;;;;;;5049177;28;20080;-83
2021/01/16 00:26:09;;;;;;;28.63;16.75;;;2.10;99.90;;;;;;5028935;28;20060;-82
2021/01/16 00:28:36;;;;;;;25.30;15.00;;;2.00;99.90;;;;;;5054935;28;20081;-81
2021/01/16 00:31:03;;;;;;;27.15;15.75;;;2.10;99.90;;;;;;5040982;28;20660;-81
2021/01/16 00:33:32;;;;;;;30.98;16.40;;;2.10;99.90;;;;;;5037609;28;20529;-81
2021/01/16 00:35:59;;;;;;;30.17;16.00;;;2.00;99.90;;;;;;5035756;28;20069;-80
2021/01/16 00:38:26;;;;;;;28.25;15.40;;;2.00;99.90;;;;;;5037881;28;20088;-81
2021/01/16 00:40:53;;;;;;;29.77;16.42;;;2.00;99.90;;;;;;5038711;28;20109;-83
2021/01/16 00:43:21;;;;;;;27.60;16.42;;;2.00;99.90;;;;;;5036961;28;20128;-81
2021/01/16 00:45:49;;;;;;;26.35;15.45;;;2.00;99.90;;;;;;5038105;28;20513;-82
2021/01/16 00:48:17;;;;;;;27.88;15.80;;;2.00;99.90;;;;;;5024440;28;20142;-80
2021/01/16 00:50:44;;;;;;;26.70;15.70;;;2.00;99.90;;;;;;5046517;28;20105;-80
2021/01/16 00:53:11;;;;;;;25.05;15.57;;;2.00;99.90;;;;;;5038262;28;20081;-80
2021/01/16 00:55:37;;;;;;;28.70;16.33;;;2.00;99.90;;;;;;5030595;28;20446;-81
2021/01/16 00:58:12;;;;;;;27.20;16.50;;;2.10;99.90;;;;;;5050094;28;20132;-82
2021/01/16 01:00:40;;;;;;;27.38;16.23;;;2.10;99.90;;;;;;5028532;28;20260;-82
2021/01/16 01:03:08;;;;;;;26.45;16.02;;;2.10;99.90;;;;;;5037796;28;20132;-81
2021/01/16 01:05:34;;;;;;;27.85;15.35;;;2.10;99.90;;;;;;5043158;28;20071;-81
2021/01/16 01:08:01;;;;;;;26.65;15.77;;;2.10;99.90;;;;;;5024034;28;20110;-82
2021/01/16 01:10:30;;;;;;;29.10;15.30;;;2.10;99.90;;;;;;5051630;28;20541;-81
2021/01/16 01:12:57;;;;;;;31.02;17.05;;;2.10;99.90;;;;;;5035191;28;20095;-82
2021/01/16 01:15:23;;;;;;;27.25;15.57;;;2.10;99.90;;;;;;5038313;28;20136;-82
2021/01/16 01:17:52;;;;;;;29.40;16.17;;;2.10;99.90;;;;;;5052452;28;20041;-81
2021/01/16 01:20:20;;;;;;;26.13;16.15;;;2.10;99.90;;;;;;5027350;28;20478;-81
2021/01/16 01:22:47;;;;;;;28.25;16.38;;;2.10;99.90;;;;;;5047217;28;20117;-82
2021/01/16 01:25:15;;;;;;;27.67;16.35;;;2.10;99.90;;;;;;5042413;28;20489;-83
2021/01/16 01:27:42;;;;;;;31.88;17.00;;;2.10;99.90;;;;;;5033481;28;20106;-81
2021/01/16 01:30:09;;;;;;;23.60;15.20;;;2.00;99.90;;;;;;5055031;28;20076;-83
2021/01/16 01:32:36;;;;;;;28.90;16.17;;;2.00;99.90;;;;;;5034340;28;20080;-83
2021/01/16 01:35:04;;;;;;;24.80;15.55;;;2.00;99.90;;;;;;5046779;28;20100;-84
2021/01/16 01:37:30;;;;;;;28.27;15.60;;;2.00;99.90;;;;;;5048911;28;20108;-84
2021/01/16 01:39:57;;;;;;;26.42;16.02;;;2.00;99.90;;;;;;5030480;28;20058;-82
2021/01/16 01:42:23;;;;;;;31.13;16.00;;;2.00;99.90;;;;;;5026875;28;20069;-82
2021/01/16 01:44:49;;;;;;;31.10;18.60;;;2.00;99.90;;;;;;5034535;28;20159;-82
2021/01/16 01:47:17;;;;;;;31.98;16.95;;;2.00;99.90;;;;;;5043629;28;20080;-82
2021/01/16 01:49:46;;;;;;;29.95;16.80;;;2.00;99.90;;;;;;5033179;28;20069;-82
2021/01/16 01:52:14;;;;;;;31.67;17.90;;;2.00;99.90;;;;;;5055713;28;20071;-81
2021/01/16 01:54:44;;;;;;;31.38;17.33;;;2.10;99.90;;;;;;5036413;28;20493;-84
2021/01/16 01:57:15;;;;;;;33.03;19.27;;;2.10;99.90;;;;;;5042373;28;20078;-82
2021/01/16 01:59:42;;;;;;;32.03;18.48;;;2.00;99.90;;;;;;5051872;28;20055;-83
2021/01/16 02:02:10;;;;;;;28.52;17.33;;;2.00;99.90;;;;;;5027880;28;20145;-83
2021/01/16 02:04:37;;;;;;;30.98;16.45;;;2.00;99.90;;;;;;5050383;28;20648;-83
2021/01/16 02:07:23;;;;;;;30.83;17.55;;;2.00;99.90;;;;;;5037799;28;20096;-82
2021/01/16 02:09:50;;;;;;;33.75;17.83;;;2.00;99.90;;;;;;5037596;28;20076;-81
2021/01/16 02:12:17;;;;;;;28.95;15.80;;;2.10;99.90;;;;;;5060961;28;20083;-83
2021/01/16 02:14:46;;;;;;;24.63;13.95;;;2.00;99.90;;;;;;5035738;28;20088;-81
2021/01/16 02:17:18;;;;;;;25.17;14.25;;;2.00;99.90;;;;;;5039953;28;20057;-81
2021/01/16 02:20:06;;;;;;;24.95;14.77;;;2.00;99.90;;;;;;5053538;28;20077;-81
2021/01/16 02:22:42;;;;;;;24.42;14.48;;;2.00;99.90;;;;;;5030575;28;20100;-81
2021/01/16 02:25:12;;;;;;;23.05;13.35;;;2.00;99.90;;;;;;5059213;28;20095;-82
2021/01/16 02:27:50;;;;;;;23.77;13.63;;;1.90;99.90;;;;;;5045266;28;20054;-80
2021/01/16 02:30:20;;;;;;;26.60;13.63;;;2.00;99.90;;;;;;5060952;28;20156;-81
2021/01/16 02:32:49;;;;;;;23.98;13.73;;;1.90;99.90;;;;;;5033172;28;20064;-81
2021/01/16 02:35:18;;;;;;;25.30;14.15;;;1.90;99.90;;;;;;5042380;28;20140;-82
2021/01/16 02:37:54;;;;;;;24.88;13.98;;;1.90;99.90;;;;;;5045309;28;20085;-81
2021/01/16 02:40:24;;;;;;;26.35;13.93;;;1.80;99.90;;;;;;5044665;28;20049;-81
2021/01/16 02:43:03;;;;;;;26.80;14.57;;;1.90;99.90;;;;;;5046293;28;20045;-82
2021/01/16 02:45:32;;;;;;;25.85;14.55;;;1.80;99.90;;;;;;5046737;28;20099;-81
2021/01/16 02:48:13;;;;;;;25.67;13.50;;;1.90;99.90;;;;;;5044843;28;20085;-81
2021/01/16 02:50:43;;;;;;;23.75;12.85;;;1.90;99.90;;;;;;5042096;28;20461;-79
2021/01/16 02:53:11;;;;;;;23.25;14.35;;;2.00;99.90;;;;;;5041905;28;20515;-80
2021/01/16 02:55:38;;;;;;;25.17;14.00;;;2.00;99.90;;;;;;5040222;28;20053;-81
2021/01/16 02:58:05;;;;;;;22.52;13.88;;;2.00;99.90;;;;;;5039723;28;20137;-82
2021/01/16 03:00:32;;;;;;;25.23;14.00;;;2.00;99.90;;;;;;5038998;28;20136;-82
2021/01/16 03:02:59;;;;;;;27.98;13.93;;;2.10;99.90;;;;;;5038777;28;20088;-80
2021/01/16 03:05:25;;;;;;;26.33;13.98;;;2.10;99.90;;;;;;5038338;28;20132;-81
2021/01/16 03:07:52;;;;;;;29.02;14.00;;;2.10;99.90;;;;;;5038803;28;20124;-82
2021/01/16 03:10:20;;;;;;;24.92;14.07;;;2.10;99.90;;;;;;5038731;28;20085;-82
2021/01/16 03:12:48;;;;;;;31.20;15.45;;;2.10;99.90;;;;;;5037764;28;20138;-80
2021/01/16 03:15:17;;;;;;;27.48;14.80;;;2.10;99.90;;;;;;5037336;28;20057;-81
2021/01/16 03:17:46;;;;;;;30.95;14.38;;;2.20;99.90;;;;;;5036991;28;20478;-81
2021/01/16 03:20:17;;;;;;;26.52;14.73;;;2.10;99.90;;;;;;5037165;28;20136;-80
2021/01/16 03:22:43;;;;;;;29.05;14.43;;;2.10;99.90;;;;;;5037047;28;20045;-80
2021/01/16 03:25:10;;;;;;;30.00;15.20;;;2.10;99.90;;;;;;5036364;28;20204;-80
2021/01/16 03:27:37;;;;;;;26.65;14.20;;;2.10;99.90;;;;;;5036706;28;20485;-80
2021/01/16 03:30:04;;;;;;;24.73;14.77;;;2.10;99.90;;;;;;5036773;28;20129;-81
2021/01/16 03:32:31;;;;;;;24.58;14.13;;;2.10;99.90;;;;;;5036268;28;20136;-81
2021/01/16 03:34:58;;;;;;;25.75;14.13;;;2.20;99.90;;;;;;5036865;28;20109;-81
2021/01/16 03:37:24;;;;;;;25.25;14.77;;;2.20;99.90;;;;;;5079295;23;20069;-79
2021/01/16 03:39:50;;;;;;;29.85;15.02;;;2.10;99.90;;;;;;5047371;28;20109;-79
2021/01/16 03:42:17;;;;;;;26.70;14.85;;;2.20;99.90;;;;;;5042551;28;20053;-80
2021/01/16 03:44:44;;;;;;;28.17;15.38;;;2.10;99.90;;;;;;5041776;28;20080;-79
2021/01/16 03:47:10;;;;;;;32.58;16.08;;;2.10;99.90;;;;;;5040896;28;20131;-78
2021/01/16 03:49:37;;;;;;;30.38;16.20;;;2.10;99.90;;;;;;5039233;28;20566;-78
2021/01/16 03:52:04;;;;;;;27.88;14.43;;;2.20;99.90;;;;;;5035786;28;20046;-78
2021/01/16 03:54:31;;;;;;;29.17;15.43;;;2.10;99.90;;;;;;5036158;28;20081;-77
2021/01/16 03:56:58;;;;;;;29.20;15.40;;;2.10;99.90;;;;;;5038649;28;20088;-78
2021/01/16 03:59:25;;;;;;;31.63;15.70;;;2.10;99.90;;;;;;5038712;28;20046;-79
2021/01/16 04:01:51;;;;;;;32.38;15.07;;;2.10;99.90;;;;;;5040016;28;20061;-78
2021/01/16 04:04:18;;;;;;;29.33;14.70;;;2.20;99.90;;;;;;5041000;28;20498;-79
2021/01/16 04:06:45;;;;;;;31.63;16.42;;;2.20;99.90;;;;;;5040960;28;20087;-78
2021/01/16 04:09:11;;;;;;;30.85;14.85;;;2.20;99.90;;;;;;5044631;28;20049;-79
2021/01/16 04:11:38;;;;;;;28.42;14.85;;;2.20;99.90;;;;;;5041030;28;20093;-79
2021/01/16 04:14:05;;;;;;;28.55;15.25;;;2.20;99.90;;;;;;5039670;28;20486;-79
2021/01/16 04:16:31;;;;;;;30.33;14.48;;;2.20;99.90;;;;;;5042957;28;20085;-80
2021/01/16 04:18:58;;;;;;;26.27;14.40;;;2.20;99.90;;;;;;5044456;28;20041;-80
2021/01/16 04:21:25;;;;;;;27.80;15.32;;;2.20;99.90;;;;;;5043824;28;20354;-79
2021/01/16 04:23:52;;;;;;;30.42;15.13;;;2.30;99.90;;;;;;5044192;28;20053;-79
2021/01/16 04:26:19;;;;;;;26.38;15.23;;;2.20;99.90;;;;;;5044079;28;20045;-79
2021/01/16 04:28:45;;;;;;;24.83;14.48;;;2.20;99.90;;;;;;5041531;28;20080;-80
2021/01/16 04:31:11;;;;;;;28.38;14.75;;;2.10;99.90;;;;;;5039342;28;20096;-79
2021/01/16 04:33:38;;;;;;;33.25;16.52;;;2.10;99.90;;;;;;5041256;28;20503;-79
2021/01/16 04:36:05;;;;;;;28.23;15.65;;;2.10;99.90;;;;;;5038799;28;20096;-79
2021/01/16 04:38:32;;;;;;;31.10;15.68;;;2.10;99.90;;;;;;5037730;28;20042;-80
2021/01/16 04:41:01;;;;;;;29.05;15.80;;;2.00;99.90;;;;;;5036843;28;20077;-80
2021/01/16 04:43:27;;;;;;;29.73;15.65;;;2.10;99.90;;;;;;5039006;28;20619;-79
2021/01/16 04:46:07;;;;;;;29.27;15.85;;;1.90;99.90;;;;;;5042732;28;20057;-80
2021/01/16 04:48:34;;;;;;;26.98;15.32;;;1.90;99.90;;;;;;5043008;28;20089;-79
2021/01/16 04:51:02;;;;;;;31.02;16.27;;;1.90;99.90;;;;;;5042193;28;20073;-79
2021/01/16 04:53:36;;;;;;;31.60;16.38;;;1.80;99.90;;;;;;5042040;28;20088;-79
2021/01/16 04:56:05;;;;;;;33.30;17.08;;;1.80;99.90;;;;;;5041579;28;20429;-78
2021/01/16 04:58:35;;;;;;;32.47;17.08;;;1.80;99.90;;;;;;5040123;28;20056;-78
2021/01/16 05:01:04;;;;;;;32.92;16.08;;;1.90;99.90;;;;;;5040603;28;20132;-78
2021/01/16 05:03:37;;;;;;;29.45;16.90;;;1.90;99.90;;;;;;5042251;28;20053;-80
2021/01/16 05:06:07;;;;;;;24.05;12.23;;;1.90;99.90;;;;;;5045623;28;20141;-80
2021/01/16 05:08:35;;;;;;;34.50;18.55;;;1.80;99.90;;;;;;5045437;28;20413;-80
2021/01/16 05:11:06;;;;;;;30.92;16.77;;;1.80;99.90;;;;;;5039575;28;20073;-79
2021/01/16 05:13:43;;;;;;;31.67;17.23;;;1.80;99.90;;;;;;5039992;28;20060;-81
2021/01/16 05:16:13;;;;;;;36.55;16.83;;;1.90;99.90;;;;;;5038405;28;20061;-81
2021/01/16 05:18:42;;;;;;;31.58;17.13;;;1.80;99.90;;;;;;5037186;28;20454;-80
2021/01/16 05:21:10;;;;;;;32.00;16.42;;;1.90;99.90;;;;;;5035807;28;20091;-80
2021/01/16 05:23:43;;;;;;;30.20;16.40;;;1.90;99.90;;;;;;5039354;28;20049;-80
2021/01/16 05:26:11;;;;;;;28.67;15.90;;;1.90;99.90;;;;;;5038144;28;20417;-80
2021/01/16 05:28:39;;;;;;;29.00;16.30;;;2.00;99.90;;;;;;5036751;28;20089;-79
2021/01/16 05:31:07;;;;;;;29.40;16.63;;;1.90;99.90;;;;;;5034754;28;20077;-78
2021/01/16 05:33:35;;;;;;;31.42;16.85;;;1.90;99.90;;;;;;5034516;28;20057;-80
2021/01/16 05:36:03;;;;;;;32.97;17.00;;;1.90;99.90;;;;;;5036860;28;20096;-78
2021/01/16 05:38:34;;;;;;;35.63;17.73;;;1.90;99.90;;;;;;5034901;28;20111;-79
2021/01/16 05:41:04;;;;;;;38.20;17.77;;;1.80;99.90;;;;;;5035859;28;20080;-79
2021/01/16 05:43:34;;;;;;;37.70;17.05;;;1.80;99.90;;;;;;5036162;28;20077;-77
2021/01/16 05:46:02;;;;;;;33.30;17.10;;;1.70;99.90;;;;;;5035707;28;20197;-79
2021/01/16 05:48:31;;;;;;;32.50;17.90;;;1.80;99.90;;;;;;5041608;28;20105;-79
2021/01/16 05:50:58;;;;;;;35.90;17.98;;;1.80;99.90;;;;;;5055456;28;20033;-80
2021/01/16 05:53:25;;;;;;;29.80;17.42;;;1.80;99.90;;;;;;5049075;28;20504;-81
2021/01/16 05:55:52;;;;;;;40.13;17.88;;;1.70;99.90;;;;;;5047226;28;20140;-80
2021/01/16 05:58:20;;;;;;;39.38;18.77;;;1.80;99.90;;;;;;5048110;28;20571;-80
2021/01/16 06:00:49;;;;;;;33.80;17.27;;;1.80;99.90;;;;;;5047222;28;20491;-79
2021/01/16 06:03:18;;;;;;;32.08;17.85;;;1.90;99.90;;;;;;5049346;28;20053;-80
2021/01/16 06:05:49;;;;;;;35.25;18.00;;;1.90;99.90;;;;;;5051365;28;20037;-81
2021/01/16 06:08:16;;;;;;;37.60;18.70;;;1.90;99.90;;;;;;5047020;28;20136;-79
2021/01/16 06:10:44;;;;;;;34.17;18.10;;;1.90;99.90;;;;;;5070723;28;20261;-82
2021/01/16 06:13:17;;;;;;;33.28;17.15;;;2.00;99.90;;;;;;5062413;28;20063;-81
2021/01/16 06:15:44;;;;;;;;;;;1.90;99.90;;;;;;5040247;28;20049;-79
2021/01/16 06:18:22;;;;;;;39.33;17.83;;;1.90;99.90;;;;;;5052147;28;20345;-78
2021/01/16 06:20:52;;;;;;;36.35;17.90;;;1.80;99.90;;;;;;5056745;28;20057;-78
2021/01/16 06:23:21;;;;;;;36.50;17.52;;;1.80;99.90;;;;;;5056567;28;20044;-79
2021/01/16 06:25:50;;;;;;;32.05;18.45;;;1.70;99.90;;;;;;5058197;28;20049;-79
2021/01/16 06:28:22;;;;;;;32.22;18.50;;;1.70;99.90;;;;;;5044941;28;20073;-79
2021/01/16 06:30:53;;;;;;;33.42;17.52;;;1.80;99.90;;;;;;5041979;28;20053;-80
2021/01/16 06:33:26;;;;;;;35.58;17.67;;;1.80;99.90;;;;;;5049321;28;20422;-79
2021/01/16 06:35:57;;;;;;;36.38;18.20;;;1.80;99.90;;;;;;5061199;28;20053;-80
2021/01/16 06:38:29;;;;;;;29.42;17.40;;;1.70;99.90;;;;;;5063186;28;20045;-80
2021/01/16 06:40:55;;;;;;;28.50;16.50;;;1.70;99.90;;;;;;5063633;28;20068;-80
2021/01/16 06:43:24;;;;;;;35.00;17.52;;;1.70;99.90;;;;;;5061477;28;20049;-80
2021/01/16 06:45:51;;;;;;;32.25;18.90;;;1.70;99.90;;;;;;5063857;28;20565;-80
2021/01/16 06:48:17;;;;;;;34.13;17.90;;;1.70;99.90;;;;;;5065518;28;20109;-80
2021/01/16 06:50:47;;;;;;;34.38;18.02;;;1.80;99.90;;;;;;5058765;28;20048;-79
2021/01/16 06:53:25;;;;;;;36.97;18.23;;;1.80;99.90;;;;;;5063211;28;20081;-79
2021/01/16 06:56:08;;;;;;;30.88;17.58;;;1.80;99.90;;;;;;5063361;28;20142;-79
2021/01/16 06:58:39;;;;;;;32.20;17.67;;;1.80;99.90;;;;;;5054230;28;20105;-79
2021/01/16 07:01:11;;;;;;;35.20;17.95;;;1.80;99.90;;;;;;5045249;28;20053;-79
2021/01/16 07:03:42;;;;;;;35.17;19.05;;;1.80;99.90;;;;;;5050130;28;20057;-80
2021/01/16 07:06:11;;;;;;;32.25;18.33;;;1.90;99.90;;;;;;5042137;28;20045;-80
2021/01/16 07:08:40;;;;;;;34.78;17.83;;;1.80;99.90;;;;;;5043127;28;20050;-79
2021/01/16 07:11:09;;;;;;;36.83;18.17;;;1.80;99.90;;;;;;5046398;28;20550;-79
2021/01/16 07:13:35;;;;;;;37.05;18.15;;;1.80;99.90;;;;;;5046255;28;20486;-80
2021/01/16 07:16:05;;;;;;;33.08;18.58;;;1.80;99.90;;;;;;5047379;28;20417;-80
2021/01/16 07:18:32;;;;;;;35.97;19.90;;;1.70;99.90;;;;;;5045865;28;20112;-81
2021/01/16 07:20:59;;;;;;;34.50;18.15;;;1.60;99.90;;;;;;5046602;28;20060;-80
2021/01/16 07:23:26;;;;;;;35.00;18.92;;;1.60;99.90;;;;;;5044102;28;20053;-81
2021/01/16 07:25:53;;;;;;;33.83;18.65;;;1.70;99.90;;;;;;5040453;28;20173;-78
2021/01/16 07:28:21;;;;;;;33.65;19.10;;;1.60;99.90;;;;;;5041088;28;20482;-79
2021/01/16 07:30:49;;;;;;;35.28;19.40;;;1.60;99.90;;;;;;5046660;28;20058;-79
2021/01/16 07:33:16;;;;;;;36.13;19.52;;;1.60;99.90;;;;;;5051319;28;20069;-79
2021/01/16 07:35:48;;;;;;;33.70;19.02;;;1.60;99.90;;;;;;5046914;28;20062;-79
2021/01/16 07:38:15;;;;;;;32.50;19.10;;;1.60;99.90;;;;;;5042909;28;20413;-80
2021/01/16 07:40:45;;;;;;;35.55;20.13;;;1.60;99.90;;;;;;5045833;28;20131;-81
2021/01/16 07:43:29;;;;;;;38.28;18.63;;;1.60;99.90;;;;;;5045529;28;20045;-81
2021/01/16 07:46:01;;;;;;;37.63;21.05;;;1.60;99.90;;;;;;5044492;28;20061;-81
2021/01/16 07:48:32;;;;;;;37.25;20.17;;;1.60;99.90;;;;;;5043809;28;20045;-82
2021/01/16 07:51:00;;;;;;;33.10;19.02;;;1.70;99.90;;;;;;5044370;28;20044;-82
2021/01/16 07:53:28;;;;;;;36.65;19.88;;;1.70;99.90;;;;;;5044385;28;20076;-81
2021/01/16 07:56:02;;;;;;;40.10;20.17;;;1.70;99.90;;;;;;5045780;28;20466;-81
2021/01/16 07:58:49;;;;;;;32.90;19.38;;;1.70;99.90;;;;;;5045634;28;20077;-82
2021/01/16 08:01:25;;;;;;;39.60;19.63;;;1.70;99.90;;;;;;5054482;28;20045;-81
2021/01/16 08:04:25;;;;;;;37.75;19.30;;;1.70;99.90;;;;;;5067325;28;20045;-79
2021/01/16 08:07:02;;;;;;;34.05;19.13;;;1.80;99.90;;;;;;5032838;28;20076;-79
2021/01/16 08:09:46;;;;;;;36.67;19.50;;;1.80;99.90;;;;;;5070325;28;20068;-81
2021/01/16 08:12:15;;;;;;;34.45;18.88;;;1.90;99.90;;;;;;5068732;28;20052;-80
2021/01/16 08:14:42;;;;;;;33.53;19.10;;;1.80;99.90;;;;;;5069587;28;20049;-80
2021/01/16 08:17:12;;;;;;;35.08;19.13;;;1.80;99.90;;;;;;5069693;28;20049;-80
2021/01/16 08:19:52;;;;;;;32.42;19.10;;;1.90;99.90;;;;;;5069915;28;20060;-81
2021/01/16 08:22:19;;;;;;;32.88;18.83;;;1.90;99.90;;;;;;5068530;28;20052;-79
2021/01/16 08:24:56;;;;;;;36.70;18.85;;;1.90;99.90;;;;;;5068367;28;20076;-78
2021/01/16 08:27:28;;;;;;;30.80;18.67;;;1.90;99.90;;;;;;5053913;28;20096;-78
2021/01/16 08:29:54;;;;;;;35.60;20.02;;;1.90;99.90;;;;;;5056123;28;20052;-80
2021/01/16 08:32:21;;;;;;;35.70;19.63;;;1.90;99.90;;;;;;5060606;28;20076;-80
2021/01/16 08:34:49;;;;;;;34.45;19.23;;;1.90;99.90;;;;;;5046541;28;20084;-79
2021/01/16 08:37:27;;;;;;;36.60;19.45;;;1.90;99.90;;;;;;5050324;28;20083;-79
2021/01/16 08:39:53;;;;;;;35.35;18.58;;;1.90;99.90;;;;;;5058268;28;20132;-79
2021/01/16 08:42:25;;;;;;;34.97;19.83;;;2.00;99.90;;;;;;5056443;28;20118;-78
2021/01/16 08:44:54;;;;;;;39.03;18.20;;;2.00;99.90;;;;;;5057149;28;20095;-82
2021/01/16 08:47:21;;;;;;;33.50;18.63;;;2.00;99.90;;;;;;5059210;28;20055;-79
2021/01/16 08:49:47;;;;;;;35.53;20.55;;;2.00;99.90;;;;;;5054148;28;20478;-78
2021/01/16 08:52:29;;;;;;;32.47;17.88;;;2.10;99.90;;;;;;5053545;28;20459;-78
2021/01/16 08:55:02;;;;;;;31.50;17.23;;;2.10;99.90;;;;;;5060447;28;20048;-79
2021/01/16 08:57:30;;;;;;;32.03;17.00;;;2.20;99.90;;;;;;5061747;28;20049;-79
2021/01/16 09:00:13;;;;;;;32.88;19.05;;;2.20;99.90;;;;;;5065412;28;20138;-78
2021/01/16 09:02:40;;;;;;;39.42;19.00;;;2.30;99.90;;;;;;5072086;28;20060;-80
2021/01/16 09:05:21;;;;;;;37.70;18.23;;;2.30;99.90;;;;;;5065904;28;20080;-82
2021/01/16 09:07:48;;;;;;;37.22;18.70;;;2.40;99.90;;;;;;5058684;28;20052;-80
2021/01/16 09:10:22;;;;;;;37.05;19.38;;;2.40;99.90;;;;;;5057335;28;20114;-80
2021/01/16 09:12:50;;;;;;;36.97;19.25;;;2.40;99.90;;;;;;5057327;28;20060;-81
2021/01/16 09:15:19;;;;;;;34.13;18.58;;;2.40;99.90;;;;;;5057116;28;20088;-80
2021/01/16 09:18:07;;;;;;;34.67;18.40;;;2.40;99.90;;;;;;5056806;28;20121;-80
2021/01/16 09:20:35;;;;;;;32.65;18.88;;;2.30;99.90;;;;;;5055174;28;20096;-80
2021/01/16 09:23:21;;;;;;;31.05;17.80;;;2.30;99.90;;;;;;5054213;28;20140;-80
2021/01/16 09:25:48;;;;;;;30.35;17.58;;;2.30;99.90;;;;;;5061669;28;20517;-80
2021/01/16 09:28:15;;;;;;;30.90;17.00;;;2.30;99.90;;;;;;5056664;28;20206;-80
2021/01/16 09:30:42;;;;;;;36.55;18.08;;;2.30;99.90;;;;;;5057378;28;20092;-80
2021/01/16 09:33:22;;;;;;;33.38;18.80;;;2.30;99.90;;;;;;5055770;28;20131;-78
2021/01/16 09:38:27;;;;;;;29.33;17.27;;;2.30;99.90;;;;;;5002627;28;20519;-78
2021/01/16 09:40:53;;;;;;;33.50;17.33;;;2.30;99.90;;;;;;5012804;28;20133;-77
2021/01/16 09:43:21;;;;;;;29.13;16.85;;;2.30;99.90;;;;;;5013181;28;20133;-78
2021/01/16 09:45:52;;;;;;;31.00;18.55;;;2.30;99.90;;;;;;5012584;28;20133;-77
2021/01/16 09:48:43;;;;;;;39.60;21.58;;;2.30;99.90;;;;;;5012990;28;20582;-78
2021/01/16 09:51:11;;;;;;;33.60;17.90;;;2.30;99.90;;;;;;5015384;28;20076;-77
2021/01/16 09:53:38;;;;;;;30.25;17.58;;;2.30;99.90;;;;;;5021498;28;20429;-80
2021/01/16 09:56:06;;;;;;;31.08;18.13;;;2.30;99.90;;;;;;5022464;28;20110;-81
2021/01/16 09:58:35;;;;;;;31.35;17.77;;;2.30;99.90;;;;;;5025238;28;20096;-80
2021/01/16 10:01:16;;;;;;;33.20;19.10;;;2.30;99.90;;;;;;5020065;28;20495;-79
2021/01/16 10:03:43;;;;;;;32.83;17.42;;;2.40;99.90;;;;;;5025341;28;20114;-81
2021/01/16 10:06:13;;;;;;;29.63;17.20;;;2.40;99.90;;;;;;5020864;28;20057;-79
2021/01/16 10:08:41;;;;;;;30.23;16.88;;;2.50;99.90;;;;;;5020366;28;20050;-80
2021/01/16 10:11:07;;;;;;;28.55;16.77;;;2.50;99.90;;;;;;5021443;28;20057;-80
2021/01/16 10:13:35;;;;;;;34.92;17.35;;;2.40;99.90;;;;;;5025549;28;20470;-81
2021/01/16 10:16:04;;;;;;;32.38;16.10;;;2.40;99.90;;;;;;5025214;28;20057;-80
2021/01/16 10:18:33;;;;;;;28.33;16.35;;;2.40;99.90;;;;;;5025638;28;20049;-81
2021/01/16 10:21:02;;;;;;;28.52;15.90;;;2.50;99.90;;;;;;5022245;28;20081;-80
2021/01/16 10:23:30;;;;;;;28.75;16.17;;;2.50;99.90;;;;;;5020040;28;20166;-80
2021/01/16 10:26:04;;;;;;;30.90;16.45;;;2.50;99.90;;;;;;5020771;28;20045;-79
2021/01/16 10:28:32;;;;;;;32.38;17.27;;;2.50;99.90;;;;;;5020390;28;20050;-78
2021/01/16 10:31:00;;;;;;;32.47;16.40;;;2.60;99.90;;;;;;5018902;28;20184;-79
2021/01/16 10:33:34;;;;;;;29.85;16.70;;;2.60;99.90;;;;;;5018348;28;20133;-79
2021/01/16 10:36:10;;;;;;;31.20;17.80;;;2.60;99.90;;;;;;5011043;28;20050;-79
2021/01/16 10:38:44;;;;;;;35.05;18.70;;;2.60;99.90;;;;;;5012119;28;20046;-78
2021/01/16 10:41:13;;;;;;;33.25;16.88;;;2.60;99.90;;;;;;5009567;28;20081;-79
2021/01/16 10:43:41;;;;;;;31.10;16.60;;;2.60;99.90;;;;;;5006593;28;20498;-79
2021/01/16 10:46:15;;;;;;;33.17;16.98;;;2.60;99.90;;;;;;5010761;28;20467;-81
2021/01/16 10:48:42;;;;;;;33.83;17.17;;;2.60;99.90;;;;;;5003611;28;20053;-79
2021/01/16 10:51:13;;;;;;;31.83;17.10;;;2.60;99.90;;;;;;5007484;28;20146;-78
2021/01/16 10:53:42;;;;;;;27.83;16.77;;;2.60;99.90;;;;;;5006892;28;20050;-79
2021/01/16 10:56:13;;;;;;;28.58;16.35;;;2.70;99.90;;;;;;4999639;28;20290;-77
2021/01/16 10:58:40;;;;;;;30.75;15.45;;;2.70;99.90;;;;;;5001117;28;20046;-80
2021/01/16 11:01:09;;;;;;;28.75;15.38;;;2.70;99.90;;;;;;5007487;28;20053;-81
2021/01/16 11:03:36;;;;;;;30.23;15.38;;;2.70;99.90;;;;;;5005752;28;20411;-80
2021/01/16 11:06:07;;;;;;;28.65;15.75;;;2.80;99.90;;;;;;5000803;28;20085;-79
2021/01/16 11:08:37;;;;;;;26.30;15.27;;;2.80;99.90;;;;;;4999190;28;20060;-79
2021/01/16 11:11:25;;;;;;;28.85;16.17;;;2.80;99.90;;;;;;5000022;28;20050;-78
2021/01/16 11:13:52;;;;;;;24.20;14.68;;;2.80;99.90;;;;;;4999307;28;20143;-79
2021/01/16 11:16:20;;;;;;;27.67;15.57;;;2.80;99.90;;;;;;4999817;28;20058;-78
2021/01/16 11:18:47;;;;;;;27.52;15.65;;;2.80;99.90;;;;;;4995591;28;20594;-78
2021/01/16 11:21:48;;;;;;;28.33;15.80;;;2.90;99.90;;;;;;5002196;28;20140;-79
2021/01/16 11:24:48;;;;;;;28.55;15.63;;;2.90;99.90;;;;;;5018974;28;20046;-78
2021/01/16 11:27:18;;;;;;;30.08;17.58;;;2.90;99.90;;;;;;4999777;28;20486;-79
2021/01/16 11:29:45;;;;;;;31.30;16.80;;;2.80;99.90;;;;;;5015342;28;20050;-77
2021/01/16 11:32:15;;;;;;;28.13;17.00;;;2.90;99.90;;;;;;5015498;28;20137;-78
2021/01/16 11:35:04;;;;;;;25.73;14.75;;;2.90;99.90;;;;;;5015707;28;20105;-79
2021/01/16 11:37:44;;;;;;;25.80;15.65;;;2.90;99.90;;;;;;5030275;28;20085;-81
2021/01/16 11:40:28;;;;;;;28.75;14.48;;;2.90;99.90;;;;;;5028828;28;20049;-81
2021/01/16 11:42:57;;;;;;;27.75;14.70;;;2.90;99.90;;;;;;5028835;28;20085;-80
2021/01/16 11:45:24;;;;;;;28.48;14.23;;;2.90;99.90;;;;;;5029571;28;20085;-81
2021/01/16 11:47:52;;;;;;;26.85;14.52;;;2.90;99.90;;;;;;5024706;28;20069;-80
2021/01/16 11:50:20;;;;;;;28.08;14.55;;;2.90;99.90;;;;;;5016538;28;20100;-79
2021/01/16 11:52:47;;;;;;;26.38;15.32;;;2.90;99.90;;;;;;5025656;28;20082;-80
2021/01/16 11:55:14;;;;;;;27.40;15.63;;;2.90;99.90;;;;;;5015436;28;20058;-79
2021/01/16 11:57:42;;;;;;;27.35;15.23;;;3.00;99.90;;;;;;5003431;28;20112;-80
2021/01/16 12:00:11;;;;;;;29.40;15.52;;;3.00;99.90;;;;;;5019868;28;20070;-80
2021/01/16 12:02:38;;;;;;;25.52;14.55;;;3.00;99.90;;;;;;5008709;28;20073;-79
2021/01/16 12:05:12;;;;;;;27.13;14.38;;;3.10;99.90;;;;;;5025317;28;20105;-80
2021/01/16 12:07:47;;;;;;;26.05;15.18;;;3.20;99.90;;;;;;5021094;28;20053;-80
2021/01/16 12:10:17;;;;;;;31.08;16.10;;;3.30;99.90;;;;;;5007245;28;20046;-80
2021/01/16 12:12:44;;;;;;;27.65;16.02;;;3.30;99.90;;;;;;5024097;28;20053;-80
2021/01/16 12:15:17;;;;;;;28.25;16.15;;;3.40;99.90;;;;;;5010340;28;20054;-79
2021/01/16 12:17:46;;;;;;;25.38;14.90;;;3.40;99.90;;;;;;5002690;28;20054;-80
2021/01/16 12:20:14;;;;;;;26.65;15.15;;;3.40;99.90;;;;;;5005810;28;20046;-80
2021/01/16 12:22:42;;;;;;;24.75;13.85;;;3.40;99.90;;;;;;5020282;28;20501;-80
2021/01/16 12:25:11;;;;;;;22.35;14.95;;;3.40;99.90;;;;;;5011908;28;20081;-80
2021/01/16 12:27:48;;;;;;;22.02;13.68;;;3.40;99.90;;;;;;5017147;28;20483;-80
2021/01/16 12:30:17;;;;;;;23.65;13.60;;;3.50;99.90;;;;;;5003647;28;20458;-79
2021/01/16 12:32:44;;;;;;;23.38;13.02;;;3.60;99.90;;;;;;5011559;28;20073;-80
2021/01/16 12:35:11;;;;;;;25.00;13.27;;;3.50;99.90;;;;;;5024254;28;20100;-80
2021/01/16 12:37:39;;;;;;;22.58;12.88;;;3.50;99.90;;;;;;5008592;28;20081;-80
2021/01/16 12:40:12;;;;;;;21.90;13.65;;;3.60;99.90;;;;;;5022414;28;20180;-79
2021/01/16 12:42:39;;;;;;;20.77;13.02;;;3.70;99.90;;;;;;5024013;28;20049;-80
2021/01/16 12:45:08;;;;;;;22.05;13.38;;;3.80;99.90;;;;;;5023667;28;20085;-80
2021/01/16 12:47:36;;;;;;;22.17;12.85;;;3.80;99.90;;;;;;5024651;28;20372;-80
2021/01/16 12:50:04;;;;;;;21.42;13.07;;;3.80;99.90;;;;;;5007520;28;20082;-80
2021/01/16 12:52:31;;;;;;;20.65;13.15;;;3.80;99.90;;;;;;5016264;28;20086;-80
2021/01/16 12:55:02;;;;;;;19.60;11.55;;;3.90;99.90;;;;;;5003686;28;20068;-79